Time;durP1;ratioP1;P1;durP2;ratioP2;P2;SDS_P1;SDS_P2;PMS_P1;PMS_P2;Temp;Humidity;BMP_temperature;BMP_pressure;BME280_temperature;BME280_humidity;BME280_pressure;Samples;Min_cycle;Max_cycle;Signal;HPM_P1;HPM_P2
2022/03/04 00:02:01;;;;;;;14.07;8.23;;;;;;;0.92;57.37;99152.69;5119663;27;41221;-74
2022/03/04 00:04:30;;;;;;;13.03;7.97;;;;;;;0.89;56.71;99152.72;5113774;27;38936;-74
2022/03/04 00:06:57;;;;;;;14.83;8.43;;;;;;;0.86;56.72;99158.03;5132852;27;42746;-74
2022/03/04 00:09:25;;;;;;;14.37;8.40;;;;;;;0.82;55.96;99165.03;5113963;27;42725;-74
2022/03/04 00:11:54;;;;;;;14.00;7.63;;;;;;;0.78;55.81;99167.72;5114141;27;41560;-74
2022/03/04 00:14:22;;;;;;;13.40;7.80;;;;;;;0.74;56.05;99174.75;5132577;27;40211;-74
2022/03/04 00:16:49;;;;;;;15.03;8.60;;;;;;;0.69;55.96;99171.34;5114052;27;40906;-74
2022/03/04 00:19:17;;;;;;;18.63;8.77;;;;;;;0.66;55.84;99176.59;5148440;27;42719;-74
2022/03/04 00:21:48;;;;;;;18.17;8.07;;;;;;;0.62;55.94;99177.53;5131300;27;41982;-74
2022/03/04 00:24:17;;;;;;;13.20;7.37;;;;;;;0.58;56.54;99178.50;5113833;27;41733;-73
2022/03/04 00:26:47;;;;;;;18.83;8.20;;;;;;;0.54;55.89;99189.84;5132463;27;42713;-74
2022/03/04 00:29:16;;;;;;;14.13;8.27;;;;;;;0.40;56.33;99168.38;5096440;27;41705;-74
2022/03/04 00:31:44;;;;;;;18.43;9.17;;;;;;;0.49;56.16;99189.09;5131244;27;41073;-74
2022/03/04 00:34:12;;;;;;;14.33;8.53;;;;;;;0.46;56.20;99189.13;5148485;27;40060;-74
2022/03/04 00:36:41;;;;;;;14.50;8.27;;;;;;;0.42;55.68;99195.28;5114043;27;41643;-74
2022/03/04 00:39:10;;;;;;;12.33;7.90;;;;;;;0.39;56.75;99187.50;5130564;27;43340;-74
2022/03/04 00:41:38;;;;;;;14.30;7.23;;;;;;;0.37;56.47;99194.50;5113862;27;42479;-74
2022/03/04 00:44:07;;;;;;;11.83;7.43;;;;;;;0.27;56.82;99179.00;5130980;27;39961;-74
2022/03/04 00:46:36;;;;;;;14.40;7.70;;;;;;;0.18;56.47;99168.72;5131017;27;40999;-74
2022/03/04 00:49:04;;;;;;;17.57;8.47;;;;;;;0.26;57.50;99179.88;5131765;27;42845;-74
2022/03/04 00:51:32;;;;;;;15.67;8.97;;;;;;;0.23;58.42;99172.13;5148174;27;43312;-74
2022/03/04 00:53:59;;;;;;;14.80;8.97;;;;;;;0.24;58.44;99173.00;5113195;27;40408;-74
2022/03/04 00:56:27;;;;;;;16.23;8.67;;;;;;;0.22;58.09;99175.63;5130962;27;40728;-74
2022/03/04 00:58:54;;;;;;;16.77;9.67;;;;;;;0.17;59.19;99167.00;5113135;27;41887;-74
2022/03/04 01:01:22;;;;;;;14.97;8.70;;;;;;;0.18;59.64;99168.72;5113678;27;42970;-75
2022/03/04 01:03:51;;;;;;;20.77;9.60;;;;;;;0.19;59.70;99170.44;5131483;27;40275;-74
2022/03/04 01:06:19;;;;;;;17.87;9.87;;;;;;;0.19;58.67;99175.66;5130730;27;41835;-74
2022/03/04 01:08:46;;;;;;;13.67;7.90;;;;;;;0.19;59.09;99180.00;5130459;27;44168;-74
2022/03/04 01:11:14;;;;;;;16.63;8.50;;;;;;;0.17;58.81;99177.44;5113312;27;41063;-74
2022/03/04 01:13:42;;;;;;;14.00;7.93;;;;;;;0.16;58.41;99180.91;5113203;27;38953;-74
2022/03/04 01:16:09;;;;;;;14.00;7.53;;;;;;;0.13;57.66;99186.16;5113363;27;40377;-74
2022/03/04 01:18:37;;;;;;;14.20;7.60;;;;;;;0.10;57.33;99185.38;5096106;27;42801;-74
2022/03/04 01:21:06;;;;;;;17.63;8.33;;;;;;;0.06;57.36;99188.91;5147952;27;41972;-74
2022/03/04 01:23:35;;;;;;;10.27;5.83;;;;;;;-0.01;57.48;99177.72;5113026;27;40072;-74
2022/03/04 01:26:02;;;;;;;12.87;7.53;;;;;;;-0.03;57.40;99182.09;5113123;27;40810;-74
2022/03/04 01:28:30;;;;;;;14.77;8.10;;;;;;;-0.15;58.45;99158.84;5097244;27;42903;-74
2022/03/04 01:30:58;;;;;;;13.60;8.23;;;;;;;-0.06;59.70;99166.50;5125972;27;41018;-74
2022/03/04 01:33:25;;;;;;;16.43;8.20;;;;;;;-0.13;59.38;99155.34;5137429;27;40198;-74
2022/03/04 01:35:53;;;;;;;18.07;9.60;;;;;;;-0.17;59.74;99150.19;5119953;27;43413;-74
2022/03/04 01:38:22;;;;;;;16.20;8.93;;;;;;;-0.09;59.84;99169.16;5137198;27;42807;-74
2022/03/04 01:40:50;;;;;;;15.93;9.27;;;;;;;-0.11;59.77;99170.91;5137106;27;43243;-74
2022/03/04 01:43:18;;;;;;;20.47;10.23;;;;;;;-0.14;60.64;99155.34;5154947;27;39900;-73
2022/03/04 01:45:45;;;;;;;14.30;7.63;;;;;;;-0.10;60.83;99162.22;5136975;27;40598;-74
2022/03/04 01:48:14;;;;;;;19.63;10.80;;;;;;;-0.27;61.17;99130.41;5155419;27;43709;-74
2022/03/04 01:50:42;;;;;;;11.83;8.03;;;;;;;-0.09;61.49;99148.31;5119674;27;43321;-74
2022/03/04 01:53:09;;;;;;;15.50;8.23;;;;;;;-0.07;62.51;99141.34;5155175;27;40068;-74
2022/03/04 01:55:38;;;;;;;17.40;8.47;;;;;;;-0.04;63.01;99136.13;5137173;27;41732;-74
2022/03/04 01:58:06;;;;;;;16.43;9.67;;;;;;;-0.04;62.82;99130.91;5136540;27;43103;-74
2022/03/04 02:00:34;;;;;;;16.97;10.00;;;;;;;-0.02;64.32;99131.75;5133239;27;42364;-74
2022/03/04 02:03:01;;;;;;;16.20;9.37;;;;;;;-0.04;63.11;99136.13;5136131;27;38984;-74
2022/03/04 02:05:29;;;;;;;16.53;9.87;;;;;;;-0.01;62.84;99146.50;5119701;27;40752;-74
2022/03/04 02:07:57;;;;;;;21.83;10.47;;;;;;;-0.02;64.44;99134.34;5136634;27;43734;-74
2022/03/04 02:10:25;;;;;;;18.40;10.57;;;;;;;-0.01;64.37;99136.06;5136504;27;43883;-74
2022/03/04 02:12:54;;;;;;;15.00;8.90;;;;;;;0.00;63.80;99143.84;5136645;27;40741;-74
2022/03/04 02:15:22;;;;;;;14.27;8.73;;;;;;;0.00;63.77;99138.63;5136777;27;41679;-74
2022/03/04 02:17:49;;;;;;;13.03;9.40;;;;;;;-0.01;63.96;99141.28;5119156;27;42860;-74
2022/03/04 02:20:21;;;;;;;20.70;9.93;;;;;;;-0.01;64.15;99143.88;5119273;27;41281;-74
2022/03/04 02:22:50;;;;;;;19.27;9.23;;;;;;;0.00;63.68;99148.22;5136163;27;40086;-74
2022/03/04 02:25:18;;;;;;;20.03;10.10;;;;;;;-0.14;63.67;99118.94;5119366;27;43451;-74
2022/03/04 02:27:46;;;;;;;23.47;10.77;;;;;;;-0.03;63.49;99138.69;5136501;27;42701;-74
2022/03/04 02:30:14;;;;;;;19.13;10.03;;;;;;;-0.06;64.55;99140.47;5118856;27;43036;-74
2022/03/04 02:32:41;;;;;;;17.97;10.03;;;;;;;-0.07;64.57;99136.16;5136246;27;40555;-74
2022/03/04 02:35:09;;;;;;;18.90;11.03;;;;;;;-0.11;64.84;99139.69;5119183;27;42339;-74
2022/03/04 02:37:39;;;;;;;18.73;8.70;;;;;;;-0.10;64.01;99137.06;5154476;27;42776;-74
2022/03/04 02:40:10;;;;;;;16.83;9.43;;;;;;;-0.10;63.63;99138.78;5136031;27;42099;-74
2022/03/04 02:42:38;;;;;;;17.63;10.37;;;;;;;-0.10;63.82;99144.00;5135778;27;39470;-74
2022/03/04 02:45:06;;;;;;;15.83;9.17;;;;;;;-0.15;64.19;99133.69;5154812;27;41872;-73
2022/03/04 02:47:34;;;;;;;17.70;9.87;;;;;;;-0.17;65.71;99132.84;5154434;27;42451;-74
2022/03/04 02:50:01;;;;;;;21.00;10.60;;;;;;;-0.15;64.88;99143.22;5136273;27;43045;-74
2022/03/04 02:52:29;;;;;;;21.83;9.90;;;;;;;-0.16;64.33;99142.38;5136104;27;40122;-74
2022/03/04 02:54:57;;;;;;;23.13;10.37;;;;;;;-0.18;64.55;99145.88;5135838;27;40921;-74
2022/03/04 02:57:26;;;;;;;23.93;11.67;;;;;;;-0.21;65.69;99127.69;5136223;27;43542;-74
2022/03/04 02:59:54;;;;;;;18.27;9.87;;;;;;;-0.22;64.47;99138.97;5154355;27;42897;-74
2022/03/04 03:02:22;;;;;;;17.17;10.13;;;;;;;-0.23;65.01;99145.91;5135904;27;40573;-74
2022/03/04 03:04:49;;;;;;;24.67;10.93;;;;;;;-0.27;66.05;99135.59;5154051;27;41902;-74
2022/03/04 03:07:17;;;;;;;20.03;10.00;;;;;;;-0.24;65.65;99141.59;5118401;27;41924;-75
2022/03/04 03:09:45;;;;;;;17.67;9.70;;;;;;;-0.25;65.08;99144.25;5135548;27;42301;-73
2022/03/04 03:12:13;;;;;;;19.37;9.37;;;;;;;-0.28;64.94;99146.88;5154441;27;39845;-74
2022/03/04 03:14:43;;;;;;;16.73;10.27;;;;;;;-0.36;64.80;99140.03;5154124;27;42668;-76
2022/03/04 03:17:11;;;;;;;16.33;9.97;;;;;;;-0.33;64.97;99149.53;5118105;27;41633;-73
2022/03/04 03:19:39;;;;;;;18.30;10.40;;;;;;;-0.36;65.34;99145.25;5135294;27;43387;-75
2022/03/04 03:22:07;;;;;;;22.17;10.90;;;;;;;-0.36;65.29;99155.66;5153838;27;40071;-74
2022/03/04 03:24:35;;;;;;;20.20;10.33;;;;;;;-0.37;65.23;99164.34;5153797;27;41769;-75
2022/03/04 03:27:02;;;;;;;18.93;11.43;;;;;;;-0.47;64.89;99157.53;5170388;27;42519;-75
2022/03/04 03:29:30;;;;;;;18.13;10.83;;;;;;;-0.41;65.38;99161.81;5135333;27;42143;-74
2022/03/04 03:31:59;;;;;;;21.33;11.60;;;;;;;-0.44;65.81;99167.91;5117989;27;41983;-74
2022/03/04 03:34:26;;;;;;;17.07;10.17;;;;;;;-0.44;65.47;99167.91;5135389;27;40907;-74
2022/03/04 03:36:54;;;;;;;18.50;10.13;;;;;;;-0.45;65.35;99176.59;5135183;27;43498;-74
2022/03/04 03:39:22;;;;;;;21.73;10.47;;;;;;;-0.47;65.63;99175.75;5153869;27;42375;-75
2022/03/04 03:41:49;;;;;;;19.73;10.77;;;;;;;-0.48;66.92;99163.63;5154059;27;40017;-74
2022/03/04 03:44:17;;;;;;;18.33;11.67;;;;;;;-0.48;66.80;99168.81;5135275;27;42435;-74
2022/03/04 03:46:44;;;;;;;17.57;10.53;;;;;;;-0.49;66.30;99169.69;5152251;27;43200;-74
2022/03/04 03:49:14;;;;;;;17.47;10.00;;;;;;;-0.50;66.13;99164.53;5153690;27;43123;-74
2022/03/04 03:51:41;;;;;;;18.37;11.30;;;;;;;-0.53;66.23;99173.25;5134290;27;40677;-75
2022/03/04 03:54:09;;;;;;;16.33;9.63;;;;;;;-0.56;65.92;99180.22;5149755;27;41846;-74
2022/03/04 03:56:38;;;;;;;17.93;9.33;;;;;;;-0.58;65.57;99185.44;5135095;27;43590;-74
2022/03/04 03:59:06;;;;;;;18.17;9.37;;;;;;;-0.61;65.24;99190.66;5116478;27;42237;-74
2022/03/04 04:01:33;;;;;;;16.80;9.87;;;;;;;-0.67;64.86;99190.75;5135294;27;40022;-74
2022/03/04 04:04:01;;;;;;;14.70;9.07;;;;;;;-0.69;64.93;99199.44;5117002;27;42120;-74
2022/03/04 04:06:30;;;;;;;18.07;10.20;;;;;;;-0.75;65.37;99203.00;5153545;27;42797;-74
2022/03/04 04:08:58;;;;;;;17.33;9.80;;;;;;;-0.76;65.96;99206.47;5117258;27;41044;-74
2022/03/04 04:11:25;;;;;;;23.93;10.73;;;;;;;-0.81;66.44;99192.66;5135049;27;39926;-74
2022/03/04 04:13:53;;;;;;;20.47;9.83;;;;;;;-0.83;65.79;99204.81;5134763;27;42286;-74
2022/03/04 04:16:21;;;;;;;16.47;9.13;;;;;;;-0.85;66.20;99201.34;5117564;27;42112;-74
2022/03/04 04:18:48;;;;;;;26.37;12.27;;;;;;;-0.87;66.56;99195.34;5134513;27;44129;-74
2022/03/04 04:21:16;;;;;;;17.93;8.40;;;;;;;-0.89;66.33;99203.16;5117659;27;41278;-75
2022/03/04 04:23:45;;;;;;;21.00;9.37;;;;;;;-0.92;66.20;99199.72;5153031;27;41813;-74
2022/03/04 04:26:13;;;;;;;17.60;10.17;;;;;;;-0.96;66.09;99200.63;5117389;27;45407;-74
2022/03/04 04:28:41;;;;;;;23.17;10.63;;;;;;;-1.00;66.35;99206.75;5117064;27;42278;-74
2022/03/04 04:31:09;;;;;;;21.37;10.27;;;;;;;-1.03;65.81;99215.44;5117489;27;39424;-74
2022/03/04 04:33:36;;;;;;;19.13;10.87;;;;;;;-1.06;65.99;99202.47;5134650;27;41726;-75
2022/03/04 04:36:04;;;;;;;16.67;9.30;;;;;;;-1.10;66.11;99201.63;5117387;27;42331;-74
2022/03/04 04:38:32;;;;;;;20.80;10.27;;;;;;;-1.15;65.57;99212.97;5134269;27;43485;-74
2022/03/04 04:41:02;;;;;;;18.17;10.20;;;;;;;-1.19;65.20;99212.13;5134632;27;40823;-74
2022/03/04 04:43:29;;;;;;;20.17;9.23;;;;;;;-1.21;65.05;99224.25;5117002;27;42075;-74
2022/03/04 04:45:57;;;;;;;14.90;9.27;;;;;;;-1.24;64.65;99228.66;5153109;27;42679;-74
2022/03/04 04:48:24;;;;;;;21.80;10.93;;;;;;;-1.34;64.73;99216.59;5152734;27;42284;-74
2022/03/04 04:50:52;;;;;;;21.17;11.43;;;;;;;-1.37;64.89;99217.50;5134579;27;39774;-74
2022/03/04 04:53:20;;;;;;;22.67;11.23;;;;;;;-1.34;65.29;99222.66;5115899;27;43079;-74
2022/03/04 04:55:47;;;;;;;21.70;11.00;;;;;;;-1.40;65.05;99222.72;5116787;27;41746;-74
2022/03/04 04:58:16;;;;;;;23.57;10.87;;;;;;;-1.42;65.03;99224.47;5152521;27;42305;-74
2022/03/04 05:00:45;;;;;;;22.73;10.17;;;;;;;-1.40;65.76;99217.53;5134396;27;40033;-74
2022/03/04 05:03:13;;;;;;;20.33;10.90;;;;;;;-1.42;65.44;99228.78;5134885;27;41752;-74
2022/03/04 05:05:41;;;;;;;19.20;11.00;;;;;;;-1.44;65.64;99228.81;5120488;27;43132;-74
2022/03/04 05:08:09;;;;;;;21.27;10.63;;;;;;;-1.47;65.92;99231.41;5156116;27;42195;-74
2022/03/04 05:10:38;;;;;;;22.47;11.07;;;;;;;-1.52;65.40;99230.63;5137823;27;40209;-74
2022/03/04 05:13:05;;;;;;;22.87;10.43;;;;;;;-1.54;65.37;99240.16;5154464;27;40664;-74
2022/03/04 05:15:35;;;;;;;23.27;12.57;;;;;;;-1.56;65.29;99236.69;5137378;27;43490;-77
2022/03/04 05:18:03;;;;;;;15.87;8.73;;;;;;;-1.61;66.33;99228.97;5155378;27;41887;-76
2022/03/04 05:20:30;;;;;;;18.30;11.00;;;;;;;-1.59;65.52;99244.50;5120666;27;40109;-73
2022/03/04 05:22:58;;;;;;;15.23;8.77;;;;;;;-1.64;65.63;99239.38;5137312;27;41509;-76
2022/03/04 05:25:26;;;;;;;23.67;11.93;;;;;;;-1.64;65.44;99243.69;5172250;27;42548;-75
2022/03/04 05:27:53;;;;;;;15.10;10.20;;;;;;;-1.68;65.45;99248.03;5172074;27;42269;-74
2022/03/04 05:30:21;;;;;;;16.70;9.43;;;;;;;-1.69;65.74;99243.72;5137456;27;41008;-75
2022/03/04 05:32:50;;;;;;;14.37;9.30;;;;;;;-1.83;66.10;99220.44;5137154;27;40440;-75
2022/03/04 05:35:18;;;;;;;21.03;10.00;;;;;;;-1.72;66.05;99240.28;5120089;27;41945;-75
2022/03/04 05:37:45;;;;;;;20.43;9.57;;;;;;;-1.73;65.83;99246.38;5136878;27;43224;-75
2022/03/04 05:40:13;;;;;;;22.73;11.43;;;;;;;-1.73;65.56;99243.78;5137550;27;39963;-74
2022/03/04 05:42:41;;;;;;;20.67;11.00;;;;;;;-1.74;65.89;99242.03;5155750;27;42521;-74
2022/03/04 05:45:10;;;;;;;19.30;10.10;;;;;;;-1.76;65.99;99247.25;5137210;27;43563;-76
2022/03/04 05:47:38;;;;;;;21.83;9.47;;;;;;;-1.78;65.88;99255.91;5119668;27;42322;-76
2022/03/04 05:50:08;;;;;;;15.13;9.53;;;;;;;-1.78;66.02;99250.72;5137078;27;40423;-74
2022/03/04 05:52:36;;;;;;;21.33;10.93;;;;;;;-1.81;66.28;99255.06;5137184;27;41410;-74
2022/03/04 05:55:04;;;;;;;22.30;11.60;;;;;;;-1.88;67.00;99244.72;5155617;27;42869;-74
2022/03/04 05:57:32;;;;;;;29.03;13.67;;;;;;;-1.83;67.01;99253.31;5136784;27;41147;-77
2022/03/04 05:59:59;;;;;;;29.57;13.07;;;;;;;-1.75;67.78;99261.94;5127615;27;40639;-73
2022/03/04 06:02:28;;;;;;;26.73;13.77;;;;;;;-1.73;67.92;99265.38;5132888;27;41519;-74
2022/03/04 06:04:56;;;;;;;23.93;12.47;;;;;;;-1.70;68.53;99264.50;5115766;27;42683;-74
2022/03/04 06:07:25;;;;;;;28.57;13.53;;;;;;;-1.65;69.10;99267.94;5099472;27;42862;-74
2022/03/04 06:09:53;;;;;;;24.57;12.87;;;;;;;-1.66;68.93;99266.22;5134211;27;40939;-76
2022/03/04 06:12:20;;;;;;;28.53;13.83;;;;;;;-1.79;69.00;99238.59;5117037;27;41799;-76
2022/03/04 06:14:48;;;;;;;25.00;13.50;;;;;;;-1.54;69.37;99276.50;5116258;27;44810;-74
2022/03/04 06:17:17;;;;;;;29.40;14.10;;;;;;;-1.53;69.44;99273.91;5135668;27;43229;-76
2022/03/04 06:19:44;;;;;;;23.60;12.80;;;;;;;-1.45;69.16;99281.63;5115974;27;40109;-76
2022/03/04 06:22:12;;;;;;;19.17;10.80;;;;;;;-1.40;68.82;99285.06;5115777;27;42492;-74
2022/03/04 06:24:41;;;;;;;22.63;11.60;;;;;;;-1.35;68.66;99287.59;5115450;27;43228;-73
2022/03/04 06:27:09;;;;;;;28.70;12.60;;;;;;;-1.31;68.28;99290.16;5133109;27;41123;-76
2022/03/04 06:29:36;;;;;;;22.83;10.33;;;;;;;-1.25;67.90;99300.53;5115617;27;41403;-74
2022/03/04 06:32:05;;;;;;;22.23;10.70;;;;;;;-1.35;67.41;99283.28;5098552;27;43744;-76
2022/03/04 06:34:34;;;;;;;21.73;11.10;;;;;;;-1.15;67.24;99304.78;5134005;27;42694;-74
2022/03/04 06:37:02;;;;;;;23.83;12.70;;;;;;;-1.10;67.09;99295.19;5115762;27;43195;-76
2022/03/04 06:39:29;;;;;;;24.13;11.80;;;;;;;-1.03;66.96;99300.34;5115257;27;39428;-74
2022/03/04 06:41:58;;;;;;;27.00;12.10;;;;;;;-1.09;66.68;99283.06;5115722;27;42744;-74
2022/03/04 06:44:26;;;;;;;22.47;11.17;;;;;;;-0.99;66.69;99294.25;5098513;27;41700;-75
2022/03/04 06:46:54;;;;;;;25.17;10.53;;;;;;;-0.83;66.34;99314.00;5149923;27;42327;-74
2022/03/04 06:49:21;;;;;;;21.93;11.07;;;;;;;-0.76;66.35;99319.16;5115522;27;39509;-76
2022/03/04 06:51:49;;;;;;;23.70;11.20;;;;;;;-0.73;66.19;99318.22;5115427;27;40698;-76
2022/03/04 06:54:17;;;;;;;23.13;12.00;;;;;;;-0.55;66.15;99325.88;5115169;27;42707;-76
2022/03/04 06:56:44;;;;;;;21.53;11.87;;;;;;;-0.17;65.82;99327.19;5097942;27;43903;-74
2022/03/04 06:59:14;;;;;;;24.57;12.40;;;;;;;0.48;65.79;99317.63;5113822;27;41657;-75
2022/03/04 07:01:42;;;;;;;17.93;10.90;;;;;;;1.48;64.92;99336.84;5114948;27;43125;-74
2022/03/04 07:04:10;;;;;;;26.77;12.43;;;;;;;2.62;62.59;99341.44;5097548;27;43254;-75
2022/03/04 07:06:37;;;;;;;25.40;13.23;;;;;;;3.93;59.34;99366.03;5115092;27;41179;-75
2022/03/04 07:09:05;;;;;;;25.77;13.90;;;;;;;5.11;56.46;99379.09;5114963;27;40982;-76
2022/03/04 07:11:32;;;;;;;24.93;13.60;;;;;;;6.43;53.62;99389.41;5133610;27;41778;-74
2022/03/04 07:14:00;;;;;;;26.10;14.43;;;;;;;7.90;50.21;99395.81;5114370;27;41979;-75
2022/03/04 07:16:29;;;;;;;26.77;14.27;;;;;;;9.18;47.46;99413.72;5133402;27;43138;-75
2022/03/04 07:18:57;;;;;;;24.80;14.00;;;;;;;10.40;44.70;99422.53;5097618;27;38908;-76
2022/03/04 07:21:25;;;;;;;25.00;13.77;;;;;;;11.61;42.42;99437.09;5151095;27;43933;-75
2022/03/04 07:23:52;;;;;;;21.47;12.00;;;;;;;12.79;39.86;99447.69;5134849;27;42963;-76
2022/03/04 07:26:20;;;;;;;22.20;12.97;;;;;;;12.94;37.72;99458.22;5134435;27;43210;-76
2022/03/04 07:28:48;;;;;;;21.97;13.93;;;;;;;12.03;37.91;99457.63;5135282;27;40121;-75
2022/03/04 07:31:15;;;;;;;22.37;13.80;;;;;;;11.69;38.67;99453.41;5154033;27;41736;-76
2022/03/04 07:33:44;;;;;;;19.83;13.57;;;;;;;12.76;37.48;99458.50;5153590;27;42777;-76
2022/03/04 07:36:12;;;;;;;22.70;14.50;;;;;;;13.08;36.98;99467.16;5135433;27;42159;-76
2022/03/04 07:38:40;;;;;;;21.37;13.37;;;;;;;13.15;36.23;99479.13;5117611;27;40557;-76
2022/03/04 07:41:07;;;;;;;21.73;13.73;;;;;;;12.51;36.93;99465.31;5135193;27;40971;-75
2022/03/04 07:43:35;;;;;;;28.30;14.03;;;;;;;11.95;37.39;99467.84;5117402;27;44218;-76
2022/03/04 07:46:03;;;;;;;25.50;14.43;;;;;;;11.08;38.26;99468.31;5152820;27;42079;-75
2022/03/04 07:48:31;;;;;;;23.37;13.13;;;;;;;10.20;39.70;99459.78;5135305;27;40108;-75
2022/03/04 07:51:00;;;;;;;25.23;13.90;;;;;;;9.60;40.76;99461.03;5117769;27;40645;-75
2022/03/04 07:53:28;;;;;;;25.47;14.03;;;;;;;9.25;41.94;99452.16;5117402;27;42682;-75
2022/03/04 07:55:56;;;;;;;26.90;14.27;;;;;;;8.63;42.88;99450.63;5131253;27;44022;-76
2022/03/04 07:58:24;;;;;;;26.47;14.37;;;;;;;8.02;44.33;99453.31;5135012;27;40190;-75
2022/03/04 08:00:51;;;;;;;29.83;13.97;;;;;;;7.51;45.65;99446.63;5153496;27;41705;-76
2022/03/04 08:03:19;;;;;;;26.20;15.10;;;;;;;7.13;46.37;99439.41;5116892;27;42354;-74
2022/03/04 08:05:46;;;;;;;26.87;13.87;;;;;;;7.24;46.85;99431.94;5117733;27;42933;-75
2022/03/04 08:08:15;;;;;;;28.07;14.53;;;;;;;7.98;45.63;99438.50;5117164;27;41556;-75
2022/03/04 08:10:43;;;;;;;29.00;15.17;;;;;;;8.49;45.04;99437.19;5152104;27;43588;-76
2022/03/04 08:13:11;;;;;;;27.00;14.73;;;;;;;8.23;44.82;99447.09;5117270;27;44829;-76
2022/03/04 08:15:39;;;;;;;30.50;14.13;;;;;;;8.01;45.13;99427.84;5134862;27;43247;-75
2022/03/04 08:18:06;;;;;;;26.33;13.93;;;;;;;8.27;44.94;99432.84;5134743;27;40274;-76
2022/03/04 08:20:34;;;;;;;26.13;14.23;;;;;;;9.21;43.64;99453.22;5134824;27;41712;-76
2022/03/04 08:23:01;;;;;;;30.07;14.30;;;;;;;11.42;40.26;99474.38;5117030;27;42031;-76
2022/03/04 08:25:30;;;;;;;27.93;14.57;;;;;;;13.53;37.11;99497.97;5134710;27;42134;-76
2022/03/04 08:27:58;;;;;;;23.90;13.73;;;;;;;15.89;34.79;99501.13;5152781;27;39972;-76
2022/03/04 08:30:26;;;;;;;25.70;15.20;;;;;;;17.82;29.34;99514.56;5134612;27;41969;-77
2022/03/04 08:32:53;;;;;;;24.67;15.13;;;;;;;19.22;28.42;99532.19;5134389;27;43581;-77
2022/03/04 08:35:21;;;;;;;24.80;15.13;;;;;;;19.64;27.61;99538.34;5117352;27;41684;-76
2022/03/04 08:37:49;;;;;;;24.43;16.60;;;;;;;20.09;26.24;99546.78;5136121;27;40667;-76
2022/03/04 08:40:17;;;;;;;23.63;16.30;;;;;;;19.91;25.48;99543.06;5156958;27;41822;-76
2022/03/04 08:42:46;;;;;;;26.83;16.93;;;;;;;19.28;25.83;99545.09;5120407;27;43620;-76
2022/03/04 08:45:15;;;;;;;24.13;15.73;;;;;;;20.55;25.38;99548.81;5137985;27;41053;-76
2022/03/04 08:47:44;;;;;;;23.17;15.87;;;;;;;22.24;24.20;99548.69;5120586;27;39745;-77
2022/03/04 08:50:13;;;;;;;25.57;16.63;;;;;;;23.51;21.66;99563.56;5156621;27;41763;-77
2022/03/04 08:52:41;;;;;;;22.43;16.13;;;;;;;24.21;20.55;99575.88;5120396;27;42538;-77
2022/03/04 08:55:14;;;;;;;21.50;16.10;;;;;;;24.92;20.61;99571.72;5120627;27;41172;-77
2022/03/04 08:57:42;;;;;;;21.93;15.43;;;;;;;25.59;20.34;99569.63;5134952;27;40151;-77
2022/03/04 09:00:13;;;;;;;23.87;17.00;;;;;;;25.48;19.00;99575.38;5155523;27;42776;-76
2022/03/04 09:02:40;;;;;;;21.33;15.33;;;;;;;25.15;19.37;99553.78;5119817;27;41305;-77
2022/03/04 09:05:09;;;;;;;23.90;16.73;;;;;;;25.26;19.80;99558.00;5153186;27;42195;-77
2022/03/04 09:07:37;;;;;;;22.07;15.63;;;;;;;23.88;20.40;99555.94;5120223;27;40980;-76
2022/03/04 09:10:05;;;;;;;20.73;14.77;;;;;;;21.92;22.16;99553.69;5137855;27;42009;-76
2022/03/04 09:12:33;;;;;;;23.83;17.13;;;;;;;20.28;24.01;99530.66;5120208;27;44557;-77
2022/03/04 09:15:01;;;;;;;23.97;15.33;;;;;;;19.83;24.77;99529.47;5154714;27;43549;-76
2022/03/04 09:17:30;;;;;;;22.23;15.40;;;;;;;21.30;23.41;99529.16;5137646;27;40014;-76
2022/03/04 09:19:58;;;;;;;21.73;14.13;;;;;;;22.62;21.49;99549.38;5119551;27;43898;-77
2022/03/04 09:22:26;;;;;;;22.43;14.93;;;;;;;22.76;21.94;99529.94;5137288;27;41585;-77
2022/03/04 09:24:54;;;;;;;26.73;16.50;;;;;;;22.31;22.19;99533.56;5137420;27;43015;-76
2022/03/04 09:27:21;;;;;;;23.87;14.90;;;;;;;21.25;23.29;99525.22;5120258;27;38651;-76
2022/03/04 09:29:49;;;;;;;22.77;15.07;;;;;;;21.99;22.81;99500.88;5155721;27;41509;-76
2022/03/04 09:32:18;;;;;;;22.87;15.07;;;;;;;23.45;21.42;99516.38;5120324;27;42082;-77
2022/03/04 09:34:47;;;;;;;24.07;14.77;;;;;;;24.56;20.14;99536.84;5136798;27;44232;-76
2022/03/04 09:37:14;;;;;;;22.17;14.17;;;;;;;24.64;19.49;99536.84;5154499;27;39398;-75
2022/03/04 09:39:43;;;;;;;19.60;14.07;;;;;;;25.45;19.02;99543.22;5119707;27;42166;-75
2022/03/04 09:42:12;;;;;;;22.90;15.20;;;;;;;25.96;18.94;99528.28;5136474;27;42635;-76
2022/03/04 09:44:41;;;;;;;18.30;13.30;;;;;;;25.58;19.32;99524.53;5155395;27;42374;-76
2022/03/04 09:47:10;;;;;;;18.43;12.80;;;;;;;24.18;20.56;99526.63;5137469;27;39934;-77
2022/03/04 09:49:39;;;;;;;21.07;13.70;;;;;;;22.79;22.03;99514.28;5135981;27;41631;-75
2022/03/04 09:52:08;;;;;;;21.57;13.67;;;;;;;22.44;21.77;99514.28;5137054;27;42795;-76
2022/03/04 09:54:36;;;;;;;20.23;12.90;;;;;;;22.23;21.63;99511.91;5154938;27;43176;-75
2022/03/04 09:57:04;;;;;;;19.77;13.50;;;;;;;22.00;22.19;99499.88;5150240;27;39850;-75
2022/03/04 09:59:32;;;;;;;24.23;13.73;;;;;;;20.86;23.64;99476.81;5136591;27;40894;-75
2022/03/04 10:02:00;;;;;;;21.03;12.73;;;;;;;20.14;24.26;99490.75;5136565;27;42875;-75
2022/03/04 10:04:28;;;;;;;21.53;13.47;;;;;;;20.89;24.24;99489.16;5119193;27;42528;-75
2022/03/04 10:06:56;;;;;;;21.50;13.50;;;;;;;21.69;22.65;99477.75;5155668;27;40512;-75
2022/03/04 10:09:41;;;;;;;21.73;12.83;;;;;;;22.33;22.45;99488.38;5136104;27;42041;-75
2022/03/04 10:12:10;;;;;;;21.33;12.70;;;;;;;22.05;21.92;99503.78;5119173;27;41895;-76
2022/03/04 10:14:58;;;;;;;16.00;10.97;;;;;;;21.61;22.83;99488.44;5136426;27;44006;-75
2022/03/04 10:17:26;;;;;;;21.67;13.30;;;;;;;21.03;22.47;99483.28;5168437;27;40090;-75
2022/03/04 10:19:54;;;;;;;18.23;12.47;;;;;;;20.05;24.29;99470.06;5136147;27;43846;-75
2022/03/04 10:22:22;;;;;;;19.17;12.47;;;;;;;20.31;24.60;99455.06;5136309;27;42692;-76
2022/03/04 10:24:51;;;;;;;23.00;13.90;;;;;;;21.15;24.01;99472.16;5136378;27;42931;-75
2022/03/04 10:27:19;;;;;;;17.60;11.60;;;;;;;21.87;22.43;99473.25;5154987;27;40100;-75
2022/03/04 10:29:48;;;;;;;20.40;12.17;;;;;;;22.86;21.53;99487.50;5136302;27;41763;-75
2022/03/04 10:32:19;;;;;;;18.37;10.67;;;;;;;23.89;20.66;99495.41;5136252;27;41766;-76
2022/03/04 10:34:49;;;;;;;15.37;10.57;;;;;;;24.52;19.34;99494.00;5136323;27;41238;-75
2022/03/04 10:37:18;;;;;;;16.60;11.40;;;;;;;25.09;19.42;99492.13;5136320;27;40074;-76
2022/03/04 10:40:07;;;;;;;15.33;10.87;;;;;;;25.84;19.07;99487.09;5135872;27;41911;-75
2022/03/04 10:42:46;;;;;;;16.93;10.93;;;;;;;26.10;18.95;99487.63;5118955;27;41473;-76
2022/03/04 10:45:16;;;;;;;19.40;11.90;;;;;;;26.51;18.48;99495.50;5118524;27;42182;-76
2022/03/04 10:47:49;;;;;;;14.40;11.07;;;;;;;26.59;19.00;99486.44;5118643;27;41111;-76
2022/03/04 10:50:19;;;;;;;15.30;11.50;;;;;;;27.53;17.92;99492.13;5133227;27;42506;-76
2022/03/04 10:52:52;;;;;;;14.97;11.03;;;;;;;28.68;16.74;99497.63;5118494;27;41990;-76
2022/03/04 10:55:30;;;;;;;15.93;10.67;;;;;;;29.19;16.51;99494.66;5135167;27;42710;-76
2022/03/04 10:57:59;;;;;;;15.77;11.77;;;;;;;29.97;15.63;99504.38;5135768;27;40553;-76
2022/03/04 11:00:29;;;;;;;13.90;9.90;;;;;;;30.37;15.10;99505.31;5170579;27;42496;-76
2022/03/04 11:03:00;;;;;;;15.40;11.00;;;;;;;30.51;14.90;99506.19;5135055;27;42960;-75
2022/03/04 11:05:28;;;;;;;13.17;9.83;;;;;;;30.85;14.30;99508.75;5118629;27;41587;-76
2022/03/04 11:07:56;;;;;;;12.80;8.93;;;;;;;30.75;13.94;99513.81;5170341;27;40002;-76
2022/03/04 11:10:25;;;;;;;13.23;9.57;;;;;;;30.83;14.42;99508.13;5135681;27;41821;-76
2022/03/04 11:12:55;;;;;;;12.73;9.87;;;;;;;31.45;14.58;99498.59;5154145;27;43744;-77
2022/03/04 11:15:24;;;;;;;11.97;9.30;;;;;;;32.13;14.36;99501.72;5170651;27;42853;-77
2022/03/04 11:17:53;;;;;;;11.77;9.90;;;;;;;32.91;13.13;99507.75;5135358;27;38880;-76
2022/03/04 11:20:23;;;;;;;12.73;9.63;;;;;;;33.36;13.21;99502.09;5151229;27;41720;-76
2022/03/04 11:22:52;;;;;;;11.98;10.35;;;;;;;33.21;13.16;99490.59;5135142;27;43437;-76
2022/03/04 11:25:22;;;;;;;11.25;8.95;;;;;;;33.48;12.63;99478.28;5117649;27;42598;-77
2022/03/04 11:27:51;;;;;;;13.15;9.73;;;;;;;34.36;12.18;99505.31;5117865;27;39931;-75